createdAt,value
2019-02-11T00:01:34.269Z,7.77
2019-02-11T00:06:35.836Z,7.71
2019-02-11T00:11:37.398Z,7.68
2019-02-11T00:16:38.950Z,7.44
2019-02-11T00:21:40.504Z,7.07
2019-02-11T00:26:42.061Z,6.84
2019-02-11T00:31:43.655Z,6.68
2019-02-11T00:36:45.224Z,6.30
2019-02-11T00:41:46.767Z,5.84
2019-02-11T00:46:48.304Z,5.74
2019-02-11T00:51:49.849Z,5.60
2019-02-11T00:56:51.389Z,5.61
2019-02-11T01:01:52.940Z,5.44
2019-02-11T01:06:54.487Z,5.35
2019-02-11T01:11:56.040Z,5.34
2019-02-11T01:16:57.589Z,5.23
2019-02-11T01:21:59.220Z,5.14
2019-02-11T01:27:00.774Z,5.11
2019-02-11T01:32:02.348Z,5.03
2019-02-11T01:37:03.887Z,5.02
2019-02-11T01:42:05.433Z,4.92
2019-02-11T01:47:06.993Z,4.87
2019-02-11T01:52:08.661Z,4.80
2019-02-11T01:57:10.209Z,4.66
2019-02-11T02:02:11.754Z,4.59
2019-02-11T02:07:13.418Z,4.58
2019-02-11T02:12:15.068Z,4.52
2019-02-11T02:17:16.616Z,4.55
2019-02-11T02:22:18.156Z,4.50
2019-02-11T02:27:19.812Z,4.54
2019-02-11T02:32:21.359Z,4.52
2019-02-11T02:37:22.908Z,4.52
2019-02-11T02:42:24.497Z,4.46
2019-02-11T02:47:26.175Z,4.41
2019-02-11T02:52:27.716Z,4.42
2019-02-11T02:57:29.263Z,4.33
2019-02-11T03:02:30.812Z,4.27
2019-02-11T03:07:32.351Z,4.26
2019-02-11T03:12:33.895Z,4.24
2019-02-11T03:17:35.469Z,4.25
2019-02-11T03:22:37.033Z,4.22
2019-02-11T03:27:38.601Z,4.21
2019-02-11T03:32:40.271Z,4.20
2019-02-11T03:37:41.804Z,4.17
2019-02-11T03:42:43.356Z,4.13
2019-02-11T03:47:44.916Z,4.13
2019-02-11T03:52:46.563Z,4.14
2019-02-11T03:57:48.110Z,4.13
2019-02-11T04:02:49.664Z,4.15
2019-02-11T04:07:51.201Z,4.18
2019-02-11T04:12:52.758Z,4.20
2019-02-11T04:17:54.471Z,4.22
2019-02-11T04:22:56.046Z,4.25
2019-02-11T04:27:57.605Z,4.26
2019-02-11T04:32:59.196Z,4.26
2019-02-11T04:38:01.018Z,4.24
2019-02-11T04:43:02.586Z,4.26
2019-02-11T04:48:04.145Z,4.31
2019-02-11T04:53:05.780Z,4.35
2019-02-11T04:58:07.532Z,4.38
2019-02-11T05:03:09.105Z,4.40
2019-02-11T05:08:10.702Z,4.41
2019-02-11T05:13:12.258Z,4.39
2019-02-11T05:18:13.810Z,4.37
2019-02-11T05:23:15.415Z,4.33
2019-02-11T05:28:17.021Z,4.31
2019-02-11T05:33:18.675Z,4.31
2019-02-11T05:38:20.485Z,4.33
2019-02-11T05:43:22.204Z,4.31
2019-02-11T05:48:23.788Z,4.33
2019-02-11T05:53:25.374Z,4.34
2019-02-11T05:58:26.945Z,4.30
2019-02-11T06:03:28.540Z,4.35
2019-02-11T06:08:30.130Z,4.32
2019-02-11T06:13:31.735Z,4.31
2019-02-11T06:18:33.293Z,4.30
2019-02-11T06:23:34.863Z,4.33
2019-02-11T06:28:36.447Z,4.33
2019-02-11T06:33:38.013Z,4.36
2019-02-11T06:38:39.593Z,4.36
2019-02-11T06:43:41.154Z,4.38
2019-02-11T06:48:42.713Z,4.46
2019-02-11T06:53:44.290Z,4.46
2019-02-11T06:58:45.837Z,4.47
2019-02-11T07:03:47.384Z,4.47
2019-02-11T07:08:49.077Z,4.45
2019-02-11T07:13:50.664Z,4.43
2019-02-11T07:18:52.220Z,4.42
2019-02-11T07:23:53.797Z,4.47
2019-02-11T07:28:55.360Z,4.50
2019-02-11T07:33:56.949Z,4.50
2019-02-11T07:38:58.507Z,4.54
2019-02-11T07:44:09.598Z,4.60
2019-02-11T07:49:11.630Z,4.63
2019-02-11T07:54:13.202Z,4.66
2019-02-11T07:59:14.813Z,4.71
2019-02-11T08:04:16.631Z,4.77
2019-02-11T08:09:18.498Z,4.86
2019-02-11T08:14:20.297Z,5.02
2019-02-11T08:19:21.917Z,5.09
2019-02-11T08:24:23.791Z,5.02
2019-02-11T08:29:25.610Z,5.04
2019-02-11T08:34:27.304Z,5.02
2019-02-11T08:39:29.159Z,5.03
2019-02-11T08:44:31.066Z,5.02
2019-02-11T08:49:32.608Z,5.15
2019-02-11T08:54:34.203Z,5.23
2019-02-11T08:59:35.768Z,5.34
2019-02-11T09:04:37.332Z,5.47
2019-02-11T09:09:38.919Z,5.44
2019-02-11T09:14:40.523Z,5.45
2019-02-11T09:19:42.104Z,5.56
2019-02-11T09:24:43.782Z,5.60
2019-02-11T09:29:45.386Z,5.61
2019-02-11T09:34:46.959Z,5.55
2019-02-11T09:39:48.536Z,5.58
2019-02-11T09:44:50.113Z,5.70
2019-02-11T09:50:31.318Z,5.82
2019-02-11T09:55:33.061Z,6.06
2019-02-11T10:00:34.758Z,5.94
2019-02-11T10:05:36.557Z,5.83
2019-02-11T10:10:38.159Z,5.85
2019-02-11T10:15:39.745Z,5.89
2019-02-11T10:20:41.328Z,6.04
2019-02-11T10:25:43.013Z,5.89
2019-02-11T10:30:44.617Z,5.84
2019-02-11T10:35:46.421Z,5.77
2019-02-11T10:40:48.092Z,5.91
2019-02-11T10:45:49.805Z,5.93
2019-02-11T10:50:51.375Z,5.67
2019-02-11T10:55:52.936Z,5.49
2019-02-11T11:00:54.850Z,5.38
2019-02-11T11:05:56.731Z,5.41
2019-02-11T11:10:58.453Z,5.49
2019-02-11T11:16:00.247Z,5.53
2019-02-11T11:21:01.916Z,5.52
2019-02-11T11:26:03.516Z,5.60
2019-02-11T11:31:05.354Z,5.72
2019-02-11T11:36:07.090Z,5.82
2019-02-11T11:41:08.767Z,5.80
2019-02-11T11:46:10.463Z,5.88
2019-02-11T11:51:12.196Z,5.67
2019-02-11T11:56:13.928Z,5.65
2019-02-11T12:01:19.608Z,6.46
2019-02-11T12:06:25.200Z,12.89
2019-02-11T12:11:25.942Z,17.34
2019-02-11T12:16:27.729Z,13.74
2019-02-11T12:21:30.286Z,8.47
2019-02-11T12:26:32.794Z,7.22
2019-02-11T12:31:34.571Z,6.69
2019-02-11T12:36:36.337Z,7.52
2019-02-11T12:41:38.044Z,9.94
2019-02-11T12:46:39.617Z,8.17
2019-02-11T12:51:41.202Z,13.32
2019-02-11T12:56:42.775Z,10.12
2019-02-11T13:01:44.469Z,8.71
2019-02-11T13:06:46.036Z,8.64
2019-02-11T13:11:47.678Z,7.80
2019-02-11T13:16:49.365Z,7.06
2019-02-11T13:21:50.980Z,9.03
2019-02-11T13:26:52.636Z,11.89
2019-02-11T13:31:54.260Z,14.05
2019-02-11T13:36:55.833Z,14.30
2019-02-11T13:41:57.558Z,13.05
2019-02-11T13:46:59.160Z,11.23
2019-02-11T13:52:00.738Z,9.85
2019-02-11T13:57:02.443Z,9.21
2019-02-11T14:02:04.133Z,9.23
2019-02-11T14:07:05.837Z,8.83
2019-02-11T14:12:07.495Z,8.89
2019-02-11T14:17:09.218Z,8.85
2019-02-11T14:22:10.810Z,8.20
2019-02-11T14:27:12.498Z,7.61
2019-02-11T14:32:14.193Z,7.38
2019-02-11T14:37:15.836Z,7.35
2019-02-11T14:42:17.421Z,7.31
2019-02-11T14:47:21.009Z,7.30
2019-02-11T14:52:22.605Z,7.29
2019-02-11T14:57:24.287Z,7.16
2019-02-11T15:02:26.001Z,7.20
2019-02-11T15:07:27.700Z,7.33
2019-02-11T15:12:29.273Z,7.07
2019-02-11T15:17:30.822Z,6.77
2019-02-11T15:22:32.417Z,6.55
2019-02-11T15:27:33.984Z,6.40
2019-02-11T15:32:35.655Z,5.96
2019-02-11T15:37:37.387Z,5.47
2019-02-11T15:42:39.148Z,5.22
2019-02-11T15:47:40.973Z,5.17
2019-02-11T15:52:42.795Z,5.20
2019-02-11T15:57:44.507Z,5.15
2019-02-11T16:02:46.333Z,5.14
2019-02-11T16:07:48.238Z,5.14
2019-02-11T16:12:49.982Z,5.06
2019-02-11T16:17:51.826Z,4.98
2019-02-11T16:22:55.899Z,4.93
2019-02-11T16:27:58.168Z,4.88
2019-02-11T16:33:01.487Z,4.82
2019-02-11T16:38:03.538Z,4.79
2019-02-11T16:43:05.305Z,4.79
2019-02-11T16:48:06.989Z,4.75
2019-02-11T16:53:08.664Z,4.73
2019-02-11T16:58:10.368Z,4.76
2019-02-11T17:03:11.912Z,4.75
2019-02-11T17:08:13.631Z,4.76
2019-02-11T17:13:15.198Z,4.77
2019-02-11T17:18:16.928Z,4.77
2019-02-11T17:23:18.615Z,4.75
2019-02-11T17:28:20.277Z,4.75
2019-02-11T17:33:21.846Z,4.74
2019-02-11T17:38:23.424Z,4.69
2019-02-11T17:43:25.033Z,4.65
2019-02-11T17:48:26.922Z,4.65
2019-02-11T17:53:28.475Z,4.67
2019-02-11T17:58:30.046Z,4.68
2019-02-11T18:03:31.671Z,4.67
2019-02-11T18:08:33.240Z,4.71
2019-02-11T18:13:34.854Z,4.76
2019-02-11T18:18:36.534Z,4.80
2019-02-11T18:23:38.253Z,4.81
2019-02-11T18:28:39.812Z,4.81
2019-02-11T18:33:41.472Z,4.74
2019-02-11T18:38:43.322Z,4.66
2019-02-11T18:43:44.901Z,4.63
2019-02-11T18:48:49.724Z,4.65
2019-02-11T18:53:51.527Z,4.64
2019-02-11T18:58:53.137Z,4.59
2019-02-11T19:03:56.840Z,4.50
2019-02-11T19:08:59.943Z,4.42
2019-02-11T19:14:01.803Z,4.37
2019-02-11T19:19:05.324Z,4.32
2019-02-11T19:24:07.030Z,4.26
2019-02-11T19:29:09.392Z,4.25
2019-02-11T19:34:10.980Z,4.24
2019-02-11T19:39:12.874Z,4.22
2019-02-11T19:44:14.654Z,4.18
2019-02-11T19:49:16.274Z,4.11
2019-02-11T19:54:18.038Z,4.05
2019-02-11T19:59:19.690Z,4.03
2019-02-11T20:04:21.281Z,4.02
2019-02-11T20:09:22.859Z,3.97
2019-02-11T20:14:24.566Z,3.94
2019-02-11T20:19:26.281Z,3.90
2019-02-11T20:24:27.979Z,3.89
2019-02-11T20:29:29.652Z,3.85
2019-02-11T20:34:31.251Z,3.74
2019-02-11T20:39:32.923Z,3.69
2019-02-11T20:44:34.539Z,3.64
2019-02-11T20:49:36.148Z,3.60
2019-02-11T20:54:37.744Z,3.57
2019-02-11T20:59:39.428Z,3.53
2019-02-11T21:04:40.998Z,3.52
2019-02-11T21:09:42.589Z,3.51
2019-02-11T21:14:44.190Z,3.50
2019-02-11T21:19:45.779Z,3.47
2019-02-11T21:24:47.348Z,3.45
2019-02-11T21:29:48.937Z,3.43
2019-02-11T21:34:50.500Z,3.39
2019-02-11T21:39:52.170Z,3.39
2019-02-11T21:44:53.761Z,3.36
2019-02-11T21:49:55.349Z,3.33
2019-02-11T21:54:56.916Z,3.32
2019-02-11T21:59:58.612Z,3.31
2019-02-11T22:05:00.283Z,3.29
2019-02-11T22:10:01.942Z,3.27
2019-02-11T22:15:04.063Z,3.28
2019-02-11T22:20:07.560Z,3.29
2019-02-11T22:25:09.731Z,3.23
2019-02-11T22:30:16.362Z,3.22
2019-02-11T22:35:18.061Z,3.19
2019-02-11T22:40:19.658Z,3.21
2019-02-11T22:45:21.700Z,3.16
2019-02-11T22:50:23.361Z,3.14
2019-02-11T22:55:24.933Z,3.13
2019-02-11T23:00:53.198Z,3.14
2019-02-11T23:05:54.785Z,3.11
2019-02-11T23:10:56.455Z,3.14
2019-02-11T23:15:58.043Z,3.17
2019-02-11T23:20:59.726Z,3.20
2019-02-11T23:26:01.313Z,3.33
2019-02-11T23:31:02.893Z,3.41
2019-02-11T23:36:04.566Z,3.46
2019-02-11T23:41:06.130Z,3.50
2019-02-11T23:46:07.718Z,3.52
2019-02-11T23:51:09.295Z,3.51
2019-02-11T23:56:10.853Z,3.57
